sensor_id;sensor_type;location;lat;lon;timestamp;temperature;humidity
2897;DHT22;1458;49.728;9.228;2024-03-22T00:01:11;7.20;99.90
2897;DHT22;1458;49.728;9.228;2024-03-22T00:03:38;7.20;99.90
2897;DHT22;1458;49.728;9.228;2024-03-22T00:06:05;7.30;99.90
2897;DHT22;1458;49.728;9.228;2024-03-22T00:08:32;7.00;99.90
2897;DHT22;1458;49.728;9.228;2024-03-22T00:10:59;6.90;99.90
2897;DHT22;1458;49.728;9.228;2024-03-22T00:13:26;6.80;99.90
2897;DHT22;1458;49.728;9.228;2024-03-22T00:15:53;6.60;99.90
2897;DHT22;1458;49.728;9.228;2024-03-22T00:18:22;6.70;99.90
2897;DHT22;1458;49.728;9.228;2024-03-22T00:20:48;6.80;99.90
2897;DHT22;1458;49.728;9.228;2024-03-22T00:23:16;6.70;99.90
2897;DHT22;1458;49.728;9.228;2024-03-22T00:25:42;6.50;99.90
2897;DHT22;1458;49.728;9.228;2024-03-22T00:28:10;6.40;99.90
2897;DHT22;1458;49.728;9.228;2024-03-22T00:30:36;6.40;99.90
2897;DHT22;1458;49.728;9.228;2024-03-22T00:33:04;6.30;99.90
2897;DHT22;1458;49.728;9.228;2024-03-22T00:35:32;6.30;99.90
2897;DHT22;1458;49.728;9.228;2024-03-22T00:37:59;6.30;99.90
2897;DHT22;1458;49.728;9.228;2024-03-22T00:40:26;6.30;99.90
2897;DHT22;1458;49.728;9.228;2024-03-22T00:42:53;6.10;99.90
2897;DHT22;1458;49.728;9.228;2024-03-22T00:45:19;6.10;99.90
2897;DHT22;1458;49.728;9.228;2024-03-22T00:47:47;6.10;99.90
2897;DHT22;1458;49.728;9.228;2024-03-22T00:50:13;6.20;99.90
2897;DHT22;1458;49.728;9.228;2024-03-22T00:52:42;6.20;99.90
2897;DHT22;1458;49.728;9.228;2024-03-22T00:55:08;6.10;99.90
2897;DHT22;1458;49.728;9.228;2024-03-22T00:57:36;6.10;99.90
2897;DHT22;1458;49.728;9.228;2024-03-22T01:00:03;6.00;99.90
2897;DHT22;1458;49.728;9.228;2024-03-22T01:02:31;6.00;99.90
2897;DHT22;1458;49.728;9.228;2024-03-22T01:04:57;5.80;99.90
2897;DHT22;1458;49.728;9.228;2024-03-22T01:07:25;5.80;99.90
2897;DHT22;1458;49.728;9.228;2024-03-22T01:09:53;5.90;99.90
2897;DHT22;1458;49.728;9.228;2024-03-22T01:12:20;5.90;99.90
2897;DHT22;1458;49.728;9.228;2024-03-22T01:14:47;5.70;99.90
2897;DHT22;1458;49.728;9.228;2024-03-22T01:17:14;5.70;99.90
2897;DHT22;1458;49.728;9.228;2024-03-22T01:19:41;5.60;99.90
2897;DHT22;1458;49.728;9.228;2024-03-22T01:22:08;5.60;99.90
2897;DHT22;1458;49.728;9.228;2024-03-22T01:24:34;5.60;99.90
2897;DHT22;1458;49.728;9.228;2024-03-22T01:27:03;5.50;99.90
2897;DHT22;1458;49.728;9.228;2024-03-22T01:29:30;5.40;99.90
2897;DHT22;1458;49.728;9.228;2024-03-22T01:31:58;5.30;99.90
2897;DHT22;1458;49.728;9.228;2024-03-22T01:34:24;5.20;99.90
2897;DHT22;1458;49.728;9.228;2024-03-22T01:36:52;5.10;99.90
2897;DHT22;1458;49.728;9.228;2024-03-22T01:39:19;5.00;99.90
2897;DHT22;1458;49.728;9.228;2024-03-22T01:41:47;5.20;99.90
2897;DHT22;1458;49.728;9.228;2024-03-22T01:44:15;5.10;99.90
2897;DHT22;1458;49.728;9.228;2024-03-22T01:46:44;5.00;99.90
2897;DHT22;1458;49.728;9.228;2024-03-22T01:49:12;5.10;99.90
2897;DHT22;1458;49.728;9.228;2024-03-22T01:51:42;5.00;99.90
2897;DHT22;1458;49.728;9.228;2024-03-22T01:54:09;5.00;99.90
2897;DHT22;1458;49.728;9.228;2024-03-22T01:56:37;4.90;99.90
2897;DHT22;1458;49.728;9.228;2024-03-22T01:59:04;5.00;99.90
2897;DHT22;1458;49.728;9.228;2024-03-22T02:01:33;5.10;99.90
2897;DHT22;1458;49.728;9.228;2024-03-22T02:04:01;5.00;99.90
2897;DHT22;1458;49.728;9.228;2024-03-22T02:06:28;4.90;99.90
2897;DHT22;1458;49.728;9.228;2024-03-22T02:08:55;4.70;99.90
2897;DHT22;1458;49.728;9.228;2024-03-22T02:11:23;4.70;99.90
2897;DHT22;1458;49.728;9.228;2024-03-22T02:13:50;4.80;99.90
2897;DHT22;1458;49.728;9.228;2024-03-22T02:16:18;4.70;99.90
2897;DHT22;1458;49.728;9.228;2024-03-22T02:18:45;4.70;99.90
2897;DHT22;1458;49.728;9.228;2024-03-22T02:21:13;4.60;99.90
2897;DHT22;1458;49.728;9.228;2024-03-22T02:23:41;4.60;99.90
2897;DHT22;1458;49.728;9.228;2024-03-22T02:26:08;4.80;99.90
2897;DHT22;1458;49.728;9.228;2024-03-22T02:28:35;4.80;99.90
2897;DHT22;1458;49.728;9.228;2024-03-22T02:31:03;4.70;99.90
2897;DHT22;1458;49.728;9.228;2024-03-22T02:33:30;4.70;99.90
2897;DHT22;1458;49.728;9.228;2024-03-22T02:35:58;4.60;99.90
2897;DHT22;1458;49.728;9.228;2024-03-22T02:38:24;4.80;99.90
2897;DHT22;1458;49.728;9.228;2024-03-22T02:40:54;4.80;99.90
2897;DHT22;1458;49.728;9.228;2024-03-22T02:43:20;4.70;99.90
2897;DHT22;1458;49.728;9.228;2024-03-22T02:45:48;4.60;99.90
2897;DHT22;1458;49.728;9.228;2024-03-22T02:48:14;4.60;99.90
2897;DHT22;1458;49.728;9.228;2024-03-22T02:50:42;4.50;99.90
2897;DHT22;1458;49.728;9.228;2024-03-22T02:53:08;4.50;99.90
2897;DHT22;1458;49.728;9.228;2024-03-22T02:55:37;4.50;99.90
2897;DHT22;1458;49.728;9.228;2024-03-22T02:58:05;4.40;99.90
2897;DHT22;1458;49.728;9.228;2024-03-22T03:00:36;4.30;99.90
2897;DHT22;1458;49.728;9.228;2024-03-22T03:03:03;4.20;99.90
2897;DHT22;1458;49.728;9.228;2024-03-22T03:05:31;4.20;99.90
2897;DHT22;1458;49.728;9.228;2024-03-22T03:07:57;4.20;99.90
2897;DHT22;1458;49.728;9.228;2024-03-22T03:10:25;4.30;99.90
2897;DHT22;1458;49.728;9.228;2024-03-22T03:12:53;4.30;99.90
2897;DHT22;1458;49.728;9.228;2024-03-22T03:15:22;4.30;99.90
2897;DHT22;1458;49.728;9.228;2024-03-22T03:17:49;4.30;99.90
2897;DHT22;1458;49.728;9.228;2024-03-22T03:20:17;4.30;99.90
2897;DHT22;1458;49.728;9.228;2024-03-22T03:22:44;4.30;99.90
2897;DHT22;1458;49.728;9.228;2024-03-22T03:25:11;4.40;99.90
2897;DHT22;1458;49.728;9.228;2024-03-22T03:27:37;4.60;99.90
2897;DHT22;1458;49.728;9.228;2024-03-22T03:30:06;4.70;99.90
2897;DHT22;1458;49.728;9.228;2024-03-22T03:32:34;4.80;99.90
2897;DHT22;1458;49.728;9.228;2024-03-22T03:35:02;4.90;99.90
2897;DHT22;1458;49.728;9.228;2024-03-22T03:37:29;4.90;99.90
2897;DHT22;1458;49.728;9.228;2024-03-22T03:39:56;4.90;99.90
2897;DHT22;1458;49.728;9.228;2024-03-22T03:42:22;4.70;99.90
2897;DHT22;1458;49.728;9.228;2024-03-22T03:44:50;4.60;99.90
2897;DHT22;1458;49.728;9.228;2024-03-22T03:47:16;4.60;99.90
2897;DHT22;1458;49.728;9.228;2024-03-22T03:49:46;4.70;99.90
2897;DHT22;1458;49.728;9.228;2024-03-22T03:52:13;4.60;99.90
2897;DHT22;1458;49.728;9.228;2024-03-22T03:54:41;4.60;99.90
2897;DHT22;1458;49.728;9.228;2024-03-22T03:57:07;4.40;99.90
2897;DHT22;1458;49.728;9.228;2024-03-22T03:59:34;4.30;99.90
2897;DHT22;1458;49.728;9.228;2024-03-22T04:02:01;4.30;99.90
2897;DHT22;1458;49.728;9.228;2024-03-22T04:04:28;4.30;99.90
2897;DHT22;1458;49.728;9.228;2024-03-22T04:06:56;4.20;99.90
2897;DHT22;1458;49.728;9.228;2024-03-22T04:09:23;4.20;99.90
2897;DHT22;1458;49.728;9.228;2024-03-22T04:11:50;4.20;99.90
2897;DHT22;1458;49.728;9.228;2024-03-22T04:14:17;4.30;99.90
2897;DHT22;1458;49.728;9.228;2024-03-22T04:16:44;4.40;99.90
2897;DHT22;1458;49.728;9.228;2024-03-22T04:19:11;4.40;99.90
2897;DHT22;1458;49.728;9.228;2024-03-22T04:21:37;4.30;99.90
2897;DHT22;1458;49.728;9.228;2024-03-22T04:24:06;4.30;99.90
2897;DHT22;1458;49.728;9.228;2024-03-22T04:26:33;4.20;99.90
2897;DHT22;1458;49.728;9.228;2024-03-22T04:29:00;4.30;99.90
2897;DHT22;1458;49.728;9.228;2024-03-22T04:31:26;4.30;99.90
2897;DHT22;1458;49.728;9.228;2024-03-22T04:33:54;4.30;99.90
2897;DHT22;1458;49.728;9.228;2024-03-22T04:36:20;4.40;99.90
2897;DHT22;1458;49.728;9.228;2024-03-22T04:38:48;4.40;99.90
2897;DHT22;1458;49.728;9.228;2024-03-22T04:41:17;4.60;99.90
2897;DHT22;1458;49.728;9.228;2024-03-22T04:43:44;4.70;99.90
2897;DHT22;1458;49.728;9.228;2024-03-22T04:46:11;4.80;99.90
2897;DHT22;1458;49.728;9.228;2024-03-22T04:48:38;4.80;99.90
2897;DHT22;1458;49.728;9.228;2024-03-22T04:51:06;4.80;99.90
2897;DHT22;1458;49.728;9.228;2024-03-22T04:53:32;4.90;99.90
2897;DHT22;1458;49.728;9.228;2024-03-22T04:55:59;4.90;99.90
2897;DHT22;1458;49.728;9.228;2024-03-22T04:58:27;4.90;99.90
2897;DHT22;1458;49.728;9.228;2024-03-22T05:00:57;4.90;99.90
2897;DHT22;1458;49.728;9.228;2024-03-22T05:03:23;4.80;99.90
2897;DHT22;1458;49.728;9.228;2024-03-22T05:05:51;4.70;99.90
2897;DHT22;1458;49.728;9.228;2024-03-22T05:08:17;4.80;99.90
2897;DHT22;1458;49.728;9.228;2024-03-22T05:10:45;4.80;99.90
2897;DHT22;1458;49.728;9.228;2024-03-22T05:13:11;5.00;99.90
2897;DHT22;1458;49.728;9.228;2024-03-22T05:15:40;5.00;99.90
2897;DHT22;1458;49.728;9.228;2024-03-22T05:18:07;4.90;99.90
2897;DHT22;1458;49.728;9.228;2024-03-22T05:20:34;4.80;99.90
2897;DHT22;1458;49.728;9.228;2024-03-22T05:23:01;4.80;99.90
2897;DHT22;1458;49.728;9.228;2024-03-22T05:25:28;4.80;99.90
2897;DHT22;1458;49.728;9.228;2024-03-22T05:27:55;4.80;99.90
2897;DHT22;1458;49.728;9.228;2024-03-22T05:30:22;4.90;99.90
2897;DHT22;1458;49.728;9.228;2024-03-22T05:32:51;4.90;99.90
2897;DHT22;1458;49.728;9.228;2024-03-22T05:35:17;4.80;99.90
2897;DHT22;1458;49.728;9.228;2024-03-22T05:37:45;4.80;99.90
2897;DHT22;1458;49.728;9.228;2024-03-22T05:40:12;4.90;99.90
2897;DHT22;1458;49.728;9.228;2024-03-22T05:42:40;5.00;99.90
2897;DHT22;1458;49.728;9.228;2024-03-22T05:45:07;5.00;99.90
2897;DHT22;1458;49.728;9.228;2024-03-22T05:47:35;5.10;99.90
2897;DHT22;1458;49.728;9.228;2024-03-22T05:50:05;5.20;99.90
2897;DHT22;1458;49.728;9.228;2024-03-22T05:52:34;5.40;99.90
2897;DHT22;1458;49.728;9.228;2024-03-22T05:55:00;5.40;99.90
2897;DHT22;1458;49.728;9.228;2024-03-22T05:57:28;5.50;99.90
2897;DHT22;1458;49.728;9.228;2024-03-22T05:59:54;5.70;99.90
2897;DHT22;1458;49.728;9.228;2024-03-22T06:02:22;5.90;99.90
2897;DHT22;1458;49.728;9.228;2024-03-22T06:04:49;5.90;99.90
2897;DHT22;1458;49.728;9.228;2024-03-22T06:07:17;5.90;99.90
2897;DHT22;1458;49.728;9.228;2024-03-22T06:09:44;5.90;99.90
2897;DHT22;1458;49.728;9.228;2024-03-22T06:12:15;5.90;99.90
2897;DHT22;1458;49.728;9.228;2024-03-22T06:14:42;5.90;99.90
2897;DHT22;1458;49.728;9.228;2024-03-22T06:17:09;6.00;99.90
2897;DHT22;1458;49.728;9.228;2024-03-22T06:19:36;5.90;99.90
2897;DHT22;1458;49.728;9.228;2024-03-22T06:22:04;6.00;99.90
2897;DHT22;1458;49.728;9.228;2024-03-22T06:24:32;6.30;99.90
2897;DHT22;1458;49.728;9.228;2024-03-22T06:26:59;6.40;99.90
2897;DHT22;1458;49.728;9.228;2024-03-22T06:29:26;6.50;99.90
2897;DHT22;1458;49.728;9.228;2024-03-22T06:31:53;6.30;99.90
2897;DHT22;1458;49.728;9.228;2024-03-22T06:34:20;6.30;99.90
2897;DHT22;1458;49.728;9.228;2024-03-22T06:36:47;6.60;99.90
2897;DHT22;1458;49.728;9.228;2024-03-22T06:39:14;6.60;99.90
2897;DHT22;1458;49.728;9.228;2024-03-22T06:41:45;6.50;99.90
2897;DHT22;1458;49.728;9.228;2024-03-22T06:44:12;6.60;99.90
2897;DHT22;1458;49.728;9.228;2024-03-22T06:46:40;6.70;99.90
2897;DHT22;1458;49.728;9.228;2024-03-22T06:49:06;6.80;99.90
2897;DHT22;1458;49.728;9.228;2024-03-22T06:51:33;6.80;99.90
2897;DHT22;1458;49.728;9.228;2024-03-22T06:54:00;7.00;99.90
2897;DHT22;1458;49.728;9.228;2024-03-22T06:56:27;7.20;99.90
2897;DHT22;1458;49.728;9.228;2024-03-22T06:58:55;7.20;99.90
2897;DHT22;1458;49.728;9.228;2024-03-22T07:01:24;7.20;99.90
2897;DHT22;1458;49.728;9.228;2024-03-22T07:03:50;7.20;99.90
2897;DHT22;1458;49.728;9.228;2024-03-22T07:06:18;7.30;99.90
2897;DHT22;1458;49.728;9.228;2024-03-22T07:08:46;7.40;99.90
2897;DHT22;1458;49.728;9.228;2024-03-22T07:11:14;7.50;99.90
2897;DHT22;1458;49.728;9.228;2024-03-22T07:13:40;7.50;99.90
2897;DHT22;1458;49.728;9.228;2024-03-22T07:16:09;7.50;99.90
2897;DHT22;1458;49.728;9.228;2024-03-22T07:18:35;7.50;99.90
2897;DHT22;1458;49.728;9.228;2024-03-22T07:21:04;7.70;99.90
2897;DHT22;1458;49.728;9.228;2024-03-22T07:23:30;7.90;99.90
2897;DHT22;1458;49.728;9.228;2024-03-22T07:25:58;8.00;99.90
2897;DHT22;1458;49.728;9.228;2024-03-22T07:28:25;8.00;99.90
2897;DHT22;1458;49.728;9.228;2024-03-22T07:30:52;8.00;99.00
2897;DHT22;1458;49.728;9.228;2024-03-22T07:33:22;8.00;99.00
2897;DHT22;1458;49.728;9.228;2024-03-22T07:35:49;8.00;98.60
2897;DHT22;1458;49.728;9.228;2024-03-22T07:38:16;8.10;99.20
2897;DHT22;1458;49.728;9.228;2024-03-22T07:40:43;8.50;99.60
2897;DHT22;1458;49.728;9.228;2024-03-22T07:43:10;9.10;98.70
2897;DHT22;1458;49.728;9.228;2024-03-22T07:45:38;9.40;96.90
2897;DHT22;1458;49.728;9.228;2024-03-22T07:48:05;9.50;96.10
2897;DHT22;1458;49.728;9.228;2024-03-22T07:50:34;9.70;94.10
2897;DHT22;1458;49.728;9.228;2024-03-22T07:53:01;9.80;92.70
2897;DHT22;1458;49.728;9.228;2024-03-22T07:55:28;10.20;92.40
2897;DHT22;1458;49.728;9.228;2024-03-22T07:57:55;10.40;91.30
2897;DHT22;1458;49.728;9.228;2024-03-22T08:00:23;10.70;89.10
2897;DHT22;1458;49.728;9.228;2024-03-22T08:02:51;10.80;86.20
2897;DHT22;1458;49.728;9.228;2024-03-22T08:05:18;11.10;84.20
2897;DHT22;1458;49.728;9.228;2024-03-22T08:07:46;11.20;87.40
2897;DHT22;1458;49.728;9.228;2024-03-22T08:10:14;11.30;85.40
2897;DHT22;1458;49.728;9.228;2024-03-22T08:12:43;11.30;84.70
2897;DHT22;1458;49.728;9.228;2024-03-22T08:15:10;11.50;85.30
2897;DHT22;1458;49.728;9.228;2024-03-22T08:17:36;11.70;81.70
2897;DHT22;1458;49.728;9.228;2024-03-22T08:20:05;11.80;79.60
2897;DHT22;1458;49.728;9.228;2024-03-22T08:22:32;11.70;76.40
2897;DHT22;1458;49.728;9.228;2024-03-22T08:25:01;11.80;78.20
2897;DHT22;1458;49.728;9.228;2024-03-22T08:27:29;11.90;75.00
2897;DHT22;1458;49.728;9.228;2024-03-22T08:29:57;11.80;75.90
2897;DHT22;1458;49.728;9.228;2024-03-22T08:32:24;11.80;77.50
2897;DHT22;1458;49.728;9.228;2024-03-22T08:34:51;11.90;77.10
2897;DHT22;1458;49.728;9.228;2024-03-22T08:37:17;11.90;75.80
2897;DHT22;1458;49.728;9.228;2024-03-22T08:39:45;12.00;77.80
2897;DHT22;1458;49.728;9.228;2024-03-22T08:42:13;12.20;76.40
2897;DHT22;1458;49.728;9.228;2024-03-22T08:44:40;12.40;74.40
2897;DHT22;1458;49.728;9.228;2024-03-22T08:47:07;12.50;73.10
2897;DHT22;1458;49.728;9.228;2024-03-22T08:49:34;12.50;75.00
2897;DHT22;1458;49.728;9.228;2024-03-22T08:52:02;12.60;75.10
2897;DHT22;1458;49.728;9.228;2024-03-22T08:54:29;12.90;73.70
2897;DHT22;1458;49.728;9.228;2024-03-22T08:56:56;13.10;75.20
2897;DHT22;1458;49.728;9.228;2024-03-22T08:59:24;13.30;73.50
2897;DHT22;1458;49.728;9.228;2024-03-22T09:01:52;13.60;72.80
2897;DHT22;1458;49.728;9.228;2024-03-22T09:04:18;13.70;71.50
2897;DHT22;1458;49.728;9.228;2024-03-22T09:06:46;13.70;73.00
2897;DHT22;1458;49.728;9.228;2024-03-22T09:09:13;13.80;71.50
2897;DHT22;1458;49.728;9.228;2024-03-22T09:11:40;13.80;72.40
2897;DHT22;1458;49.728;9.228;2024-03-22T09:14:06;13.80;70.40
2897;DHT22;1458;49.728;9.228;2024-03-22T09:16:37;14.00;73.20
2897;DHT22;1458;49.728;9.228;2024-03-22T09:19:03;13.90;71.40
2897;DHT22;1458;49.728;9.228;2024-03-22T09:21:31;14.10;70.90
2897;DHT22;1458;49.728;9.228;2024-03-22T09:23:57;14.20;70.00
2897;DHT22;1458;49.728;9.228;2024-03-22T09:26:25;14.20;70.40
2897;DHT22;1458;49.728;9.228;2024-03-22T09:28:51;14.20;68.60
2897;DHT22;1458;49.728;9.228;2024-03-22T09:31:19;14.30;67.40
2897;DHT22;1458;49.728;9.228;2024-03-22T09:33:47;14.50;67.20
2897;DHT22;1458;49.728;9.228;2024-03-22T09:36:14;14.70;68.70
2897;DHT22;1458;49.728;9.228;2024-03-22T09:38:41;14.80;66.10
2897;DHT22;1458;49.728;9.228;2024-03-22T09:41:09;15.10;65.30
2897;DHT22;1458;49.728;9.228;2024-03-22T09:43:37;15.10;64.50
2897;DHT22;1458;49.728;9.228;2024-03-22T09:46:06;15.10;62.90
2897;DHT22;1458;49.728;9.228;2024-03-22T09:48:33;15.10;62.40
2897;DHT22;1458;49.728;9.228;2024-03-22T09:51:03;15.20;61.30
2897;DHT22;1458;49.728;9.228;2024-03-22T09:53:30;15.30;60.80
2897;DHT22;1458;49.728;9.228;2024-03-22T09:55:59;15.20;61.10
2897;DHT22;1458;49.728;9.228;2024-03-22T09:58:27;15.30;61.90
2897;DHT22;1458;49.728;9.228;2024-03-22T10:00:55;15.30;62.50
2897;DHT22;1458;49.728;9.228;2024-03-22T10:03:26;15.50;61.50
2897;DHT22;1458;49.728;9.228;2024-03-22T10:05:53;15.70;60.50
2897;DHT22;1458;49.728;9.228;2024-03-22T10:08:21;16.00;57.40
2897;DHT22;1458;49.728;9.228;2024-03-22T10:10:49;16.40;61.00
2897;DHT22;1458;49.728;9.228;2024-03-22T10:13:15;16.50;56.10
2897;DHT22;1458;49.728;9.228;2024-03-22T10:15:43;16.70;54.20
2897;DHT22;1458;49.728;9.228;2024-03-22T10:18:10;16.70;53.50
2897;DHT22;1458;49.728;9.228;2024-03-22T10:20:37;16.70;52.60
2897;DHT22;1458;49.728;9.228;2024-03-22T10:23:04;17.00;52.00
2897;DHT22;1458;49.728;9.228;2024-03-22T10:25:33;16.90;49.10
2897;DHT22;1458;49.728;9.228;2024-03-22T10:28:00;16.90;50.40
2897;DHT22;1458;49.728;9.228;2024-03-22T10:30:28;16.90;49.80
2897;DHT22;1458;49.728;9.228;2024-03-22T10:32:54;17.00;48.60
2897;DHT22;1458;49.728;9.228;2024-03-22T10:35:24;17.20;45.40
2897;DHT22;1458;49.728;9.228;2024-03-22T10:37:51;17.30;45.20
2897;DHT22;1458;49.728;9.228;2024-03-22T10:40:20;17.30;48.00
2897;DHT22;1458;49.728;9.228;2024-03-22T10:42:48;17.40;44.80
2897;DHT22;1458;49.728;9.228;2024-03-22T10:45:16;17.10;45.60
2897;DHT22;1458;49.728;9.228;2024-03-22T10:47:44;17.20;43.00
2897;DHT22;1458;49.728;9.228;2024-03-22T10:50:14;17.20;44.00
2897;DHT22;1458;49.728;9.228;2024-03-22T10:52:47;17.30;45.50
2897;DHT22;1458;49.728;9.228;2024-03-22T10:55:19;17.40;44.00
2897;DHT22;1458;49.728;9.228;2024-03-22T10:57:52;17.30;44.50
2897;DHT22;1458;49.728;9.228;2024-03-22T11:00:27;17.30;47.40
2897;DHT22;1458;49.728;9.228;2024-03-22T11:02:55;17.40;45.30
2897;DHT22;1458;49.728;9.228;2024-03-22T11:05:22;17.50;42.40
2897;DHT22;1458;49.728;9.228;2024-03-22T11:07:59;17.50;42.20
2897;DHT22;1458;49.728;9.228;2024-03-22T11:10:29;17.50;43.60
2897;DHT22;1458;49.728;9.228;2024-03-22T11:13:00;17.60;42.20
2897;DHT22;1458;49.728;9.228;2024-03-22T11:15:28;17.70;42.40
2897;DHT22;1458;49.728;9.228;2024-03-22T11:17:55;17.90;40.30
2897;DHT22;1458;49.728;9.228;2024-03-22T11:20:23;17.80;42.50
2897;DHT22;1458;49.728;9.228;2024-03-22T11:22:51;17.90;42.70
2897;DHT22;1458;49.728;9.228;2024-03-22T11:25:19;18.10;40.10
2897;DHT22;1458;49.728;9.228;2024-03-22T11:27:46;18.20;40.40
2897;DHT22;1458;49.728;9.228;2024-03-22T11:30:15;18.30;38.60
2897;DHT22;1458;49.728;9.228;2024-03-22T11:32:43;18.40;40.20
2897;DHT22;1458;49.728;9.228;2024-03-22T11:35:11;18.30;42.70
2897;DHT22;1458;49.728;9.228;2024-03-22T11:37:39;18.30;39.30
2897;DHT22;1458;49.728;9.228;2024-03-22T11:40:09;18.20;40.70
2897;DHT22;1458;49.728;9.228;2024-03-22T11:42:36;17.90;37.80
2897;DHT22;1458;49.728;9.228;2024-03-22T11:45:06;17.70;40.00
2897;DHT22;1458;49.728;9.228;2024-03-22T11:47:35;17.70;37.80
2897;DHT22;1458;49.728;9.228;2024-03-22T11:50:03;17.70;36.30
2897;DHT22;1458;49.728;9.228;2024-03-22T11:52:31;17.80;36.20
2897;DHT22;1458;49.728;9.228;2024-03-22T11:54:58;17.70;33.70
2897;DHT22;1458;49.728;9.228;2024-03-22T11:57:25;17.60;37.80
2897;DHT22;1458;49.728;9.228;2024-03-22T11:59:52;17.50;37.10
2897;DHT22;1458;49.728;9.228;2024-03-22T12:02:25;17.50;37.10
2897;DHT22;1458;49.728;9.228;2024-03-22T12:04:54;17.40;35.50
2897;DHT22;1458;49.728;9.228;2024-03-22T12:07:21;17.40;38.70
2897;DHT22;1458;49.728;9.228;2024-03-22T12:09:48;17.40;39.10
2897;DHT22;1458;49.728;9.228;2024-03-22T12:12:15;17.40;38.90
2897;DHT22;1458;49.728;9.228;2024-03-22T12:14:42;17.50;37.20
2897;DHT22;1458;49.728;9.228;2024-03-22T12:17:09;17.60;37.80
2897;DHT22;1458;49.728;9.228;2024-03-22T12:19:36;17.80;36.50
2897;DHT22;1458;49.728;9.228;2024-03-22T12:22:04;18.10;38.60
2897;DHT22;1458;49.728;9.228;2024-03-22T12:24:32;18.20;37.60
2897;DHT22;1458;49.728;9.228;2024-03-22T12:26:59;18.20;38.60
2897;DHT22;1458;49.728;9.228;2024-03-22T12:29:27;18.30;36.20
2897;DHT22;1458;49.728;9.228;2024-03-22T12:31:53;18.30;35.60
2897;DHT22;1458;49.728;9.228;2024-03-22T12:34:21;18.50;35.90
2897;DHT22;1458;49.728;9.228;2024-03-22T12:36:47;18.50;36.10
2897;DHT22;1458;49.728;9.228;2024-03-22T12:39:16;18.50;34.60
2897;DHT22;1458;49.728;9.228;2024-03-22T12:41:42;18.60;32.60
2897;DHT22;1458;49.728;9.228;2024-03-22T12:44:10;18.70;31.80
2897;DHT22;1458;49.728;9.228;2024-03-22T12:46:36;18.50;32.90
2897;DHT22;1458;49.728;9.228;2024-03-22T12:49:03;18.50;31.00
2897;DHT22;1458;49.728;9.228;2024-03-22T12:51:30;18.40;33.60
2897;DHT22;1458;49.728;9.228;2024-03-22T12:53:57;18.40;32.70
2897;DHT22;1458;49.728;9.228;2024-03-22T12:56:25;18.40;33.50
2897;DHT22;1458;49.728;9.228;2024-03-22T12:58:52;18.40;35.40
2897;DHT22;1458;49.728;9.228;2024-03-22T13:01:20;18.40;32.10
2897;DHT22;1458;49.728;9.228;2024-03-22T13:03:47;18.40;34.90
2897;DHT22;1458;49.728;9.228;2024-03-22T13:06:14;18.30;36.50
2897;DHT22;1458;49.728;9.228;2024-03-22T13:08:41;18.30;35.40
2897;DHT22;1458;49.728;9.228;2024-03-22T13:11:08;18.30;36.00
2897;DHT22;1458;49.728;9.228;2024-03-22T13:13:37;18.30;35.00
2897;DHT22;1458;49.728;9.228;2024-03-22T13:16:04;18.40;34.70
2897;DHT22;1458;49.728;9.228;2024-03-22T13:18:32;18.60;31.80
2897;DHT22;1458;49.728;9.228;2024-03-22T13:21:00;18.60;31.50
2897;DHT22;1458;49.728;9.228;2024-03-22T13:23:27;18.50;33.20
2897;DHT22;1458;49.728;9.228;2024-03-22T13:25:55;18.50;36.00
2897;DHT22;1458;49.728;9.228;2024-03-22T13:28:24;18.50;37.00
2897;DHT22;1458;49.728;9.228;2024-03-22T13:31:01;18.50;34.30
2897;DHT22;1458;49.728;9.228;2024-03-22T13:33:29;18.30;35.80
2897;DHT22;1458;49.728;9.228;2024-03-22T13:35:56;18.40;34.20
2897;DHT22;1458;49.728;9.228;2024-03-22T13:38:23;18.30;35.30
2897;DHT22;1458;49.728;9.228;2024-03-22T13:40:54;18.30;33.60
2897;DHT22;1458;49.728;9.228;2024-03-22T13:43:21;18.20;34.60
2897;DHT22;1458;49.728;9.228;2024-03-22T13:45:51;18.20;36.70
2897;DHT22;1458;49.728;9.228;2024-03-22T13:48:21;18.20;35.80
2897;DHT22;1458;49.728;9.228;2024-03-22T13:50:51;18.10;35.70
2897;DHT22;1458;49.728;9.228;2024-03-22T13:53:18;18.10;37.10
2897;DHT22;1458;49.728;9.228;2024-03-22T13:55:47;18.10;36.40
2897;DHT22;1458;49.728;9.228;2024-03-22T13:58:14;18.20;37.20
2897;DHT22;1458;49.728;9.228;2024-03-22T14:00:41;18.20;37.20
2897;DHT22;1458;49.728;9.228;2024-03-22T14:03:08;18.40;36.00
2897;DHT22;1458;49.728;9.228;2024-03-22T14:05:37;18.30;35.60
2897;DHT22;1458;49.728;9.228;2024-03-22T14:08:04;18.20;35.70
2897;DHT22;1458;49.728;9.228;2024-03-22T14:10:32;18.20;37.60
2897;DHT22;1458;49.728;9.228;2024-03-22T14:12:58;18.10;35.10
2897;DHT22;1458;49.728;9.228;2024-03-22T14:15:26;18.10;34.50
2897;DHT22;1458;49.728;9.228;2024-03-22T14:17:53;18.00;36.30
2897;DHT22;1458;49.728;9.228;2024-03-22T14:20:21;18.00;35.80
2897;DHT22;1458;49.728;9.228;2024-03-22T14:22:49;17.90;35.60
2897;DHT22;1458;49.728;9.228;2024-03-22T14:25:17;17.90;36.60
2897;DHT22;1458;49.728;9.228;2024-03-22T14:27:44;17.90;36.20
2897;DHT22;1458;49.728;9.228;2024-03-22T14:30:12;17.90;36.90
2897;DHT22;1458;49.728;9.228;2024-03-22T14:32:40;17.80;37.60
2897;DHT22;1458;49.728;9.228;2024-03-22T14:35:08;17.60;37.00
2897;DHT22;1458;49.728;9.228;2024-03-22T14:37:35;17.50;37.00
2897;DHT22;1458;49.728;9.228;2024-03-22T14:40:05;17.50;38.10
2897;DHT22;1458;49.728;9.228;2024-03-22T14:42:37;17.50;37.10
2897;DHT22;1458;49.728;9.228;2024-03-22T14:45:05;17.40;38.20
2897;DHT22;1458;49.728;9.228;2024-03-22T14:47:32;17.40;39.40
2897;DHT22;1458;49.728;9.228;2024-03-22T14:49:59;17.40;40.00
2897;DHT22;1458;49.728;9.228;2024-03-22T14:52:26;17.40;40.80
2897;DHT22;1458;49.728;9.228;2024-03-22T14:54:53;17.50;38.20
2897;DHT22;1458;49.728;9.228;2024-03-22T14:57:21;17.40;39.30
2897;DHT22;1458;49.728;9.228;2024-03-22T14:59:48;17.50;38.10
2897;DHT22;1458;49.728;9.228;2024-03-22T15:02:18;17.50;37.60
2897;DHT22;1458;49.728;9.228;2024-03-22T15:04:45;17.50;40.50
2897;DHT22;1458;49.728;9.228;2024-03-22T15:07:12;17.50;40.30
2897;DHT22;1458;49.728;9.228;2024-03-22T15:09:40;17.40;40.90
2897;DHT22;1458;49.728;9.228;2024-03-22T15:12:08;17.40;42.00
2897;DHT22;1458;49.728;9.228;2024-03-22T15:14:37;17.40;42.00
2897;DHT22;1458;49.728;9.228;2024-03-22T15:17:03;17.40;40.20
2897;DHT22;1458;49.728;9.228;2024-03-22T15:19:30;17.30;41.90
2897;DHT22;1458;49.728;9.228;2024-03-22T15:21:57;17.30;42.80
2897;DHT22;1458;49.728;9.228;2024-03-22T15:24:24;17.20;42.40
2897;DHT22;1458;49.728;9.228;2024-03-22T15:26:51;17.10;42.50
2897;DHT22;1458;49.728;9.228;2024-03-22T15:29:18;17.00;42.20
2897;DHT22;1458;49.728;9.228;2024-03-22T15:31:46;17.00;42.20
2897;DHT22;1458;49.728;9.228;2024-03-22T15:34:13;16.80;43.20
2897;DHT22;1458;49.728;9.228;2024-03-22T15:36:40;16.80;46.30
2897;DHT22;1458;49.728;9.228;2024-03-22T15:39:08;16.70;44.80
2897;DHT22;1458;49.728;9.228;2024-03-22T15:41:36;16.70;45.20
2897;DHT22;1458;49.728;9.228;2024-03-22T15:44:04;16.60;47.50
2897;DHT22;1458;49.728;9.228;2024-03-22T15:46:30;16.50;48.00
2897;DHT22;1458;49.728;9.228;2024-03-22T15:49:00;16.40;49.40
2897;DHT22;1458;49.728;9.228;2024-03-22T15:51:26;16.40;47.50
2897;DHT22;1458;49.728;9.228;2024-03-22T15:53:53;16.30;49.70
2897;DHT22;1458;49.728;9.228;2024-03-22T15:56:20;16.20;49.00
2897;DHT22;1458;49.728;9.228;2024-03-22T15:58:47;16.20;51.30
2897;DHT22;1458;49.728;9.228;2024-03-22T16:01:14;16.20;52.80
2897;DHT22;1458;49.728;9.228;2024-03-22T16:03:41;16.10;51.80
2897;DHT22;1458;49.728;9.228;2024-03-22T16:06:09;16.10;52.30
2897;DHT22;1458;49.728;9.228;2024-03-22T16:08:36;16.00;51.50
2897;DHT22;1458;49.728;9.228;2024-03-22T16:11:03;16.10;49.20